createdAt,value
2023-02-06T00:01:17.909Z,101865.16
2023-02-06T00:03:44.668Z,101866.38
2023-02-06T00:06:11.445Z,101870.72
2023-02-06T00:08:38.210Z,101861.16
2023-02-06T00:11:07.575Z,101860.50
2023-02-06T00:13:35.708Z,101859.06
2023-02-06T00:16:03.132Z,101860.97
2023-02-06T00:18:30.515Z,101865.03
2023-02-06T00:20:57.256Z,101868.28
2023-02-06T00:23:24.058Z,101867.13
2023-02-06T00:25:51.214Z,101862.66
2023-02-06T00:28:18.036Z,101857.56
2023-02-06T00:30:47.789Z,101858.97
2023-02-06T00:33:14.640Z,101862.84
2023-02-06T00:35:41.474Z,101861.91
2023-02-06T00:38:10.620Z,101859.56
2023-02-06T00:40:38.146Z,101862.66
2023-02-06T00:43:04.893Z,101873.28
2023-02-06T00:45:31.682Z,101866.84
2023-02-06T00:47:58.569Z,101870.25
2023-02-06T00:50:25.288Z,101867.44
2023-02-06T00:52:52.128Z,101873.41
2023-02-06T00:55:18.886Z,101858.34
2023-02-06T00:57:45.658Z,101855.47
2023-02-06T01:00:13.066Z,101857.84
2023-02-06T01:02:39.875Z,101855.38
2023-02-06T01:05:06.921Z,101851.50
2023-02-06T01:07:33.635Z,101860.69
2023-02-06T01:10:00.334Z,101860.03
2023-02-06T01:12:27.163Z,101857.94
2023-02-06T01:14:57.117Z,101856.06
2023-02-06T01:17:23.804Z,101857.75
2023-02-06T01:20:02.958Z,101859.25
2023-02-06T01:22:29.677Z,101865.50
2023-02-06T01:24:56.391Z,101864.56
2023-02-06T01:27:23.135Z,101858.22
2023-02-06T01:29:50.176Z,101849.59
2023-02-06T01:32:16.845Z,101848.47
2023-02-06T01:34:43.790Z,101856.41
2023-02-06T01:37:10.607Z,101859.34
2023-02-06T01:39:37.885Z,101861.91
2023-02-06T01:42:05.457Z,101862.31
2023-02-06T01:44:34.107Z,101867.13
2023-02-06T01:47:00.795Z,101864.38
2023-02-06T01:49:43.095Z,101870.94
2023-02-06T01:52:15.730Z,101860.69
2023-02-06T01:54:43.098Z,101860.97
2023-02-06T01:57:12.139Z,101855.84
2023-02-06T02:02:09.047Z,101862.50
2023-02-06T02:04:35.820Z,101854.16
2023-02-06T02:07:17.888Z,101854.72
2023-02-06T02:09:44.587Z,101853.88
2023-02-06T02:12:11.581Z,101845.00
2023-02-06T02:14:40.943Z,101846.53
2023-02-06T02:17:44.079Z,101842.94
2023-02-06T02:20:35.607Z,101845.22
2023-02-06T02:23:30.474Z,101838.69
2023-02-06T02:26:18.810Z,101833.28
2023-02-06T02:29:04.657Z,101842.84
2023-02-06T02:31:47.119Z,101837.66
2023-02-06T02:34:31.766Z,101836.13
2023-02-06T02:37:22.502Z,101845.69
2023-02-06T02:40:03.963Z,101837.66
2023-02-06T02:42:44.153Z,101833.69
2023-02-06T02:45:21.298Z,101844.09
2023-02-06T02:47:57.090Z,101849.22
2023-02-06T02:50:24.552Z,101848.75
2023-02-06T02:52:51.799Z,101860.38
2023-02-06T02:55:23.506Z,101851.66
2023-02-06T02:57:54.156Z,101850.19
2023-02-06T03:00:23.420Z,101855.16
2023-02-06T03:02:51.648Z,101854.81
2023-02-06T03:05:25.329Z,101845.91
2023-02-06T03:08:06.698Z,101838.81
2023-02-06T03:10:44.237Z,101830.75
2023-02-06T03:13:21.694Z,101838.63
2023-02-06T03:15:53.365Z,101842.59
2023-02-06T03:18:31.360Z,101830.19
2023-02-06T03:21:00.380Z,101833.09
2023-02-06T03:23:32.755Z,101832.72
2023-02-06T03:26:04.402Z,101838.78
2023-02-06T03:28:44.118Z,101846.53
2023-02-06T03:31:18.434Z,101841.25
2023-02-06T03:33:54.970Z,101846.19
2023-02-06T03:36:22.230Z,101840.69
2023-02-06T03:38:52.486Z,101836.91
2023-02-06T03:41:24.292Z,101834.72
2023-02-06T03:43:53.001Z,101847.31
2023-02-06T03:46:20.868Z,101838.22
2023-02-06T03:48:54.356Z,101838.63
2023-02-06T03:51:44.234Z,101844.88
2023-02-06T03:54:14.139Z,101847.72
2023-02-06T03:56:44.154Z,101841.00
2023-02-06T03:59:11.192Z,101849.06
2023-02-06T04:01:44.688Z,101848.66
2023-02-06T04:04:29.268Z,101841.19
2023-02-06T04:07:02.839Z,101841.56
2023-02-06T04:09:30.151Z,101842.50
2023-02-06T04:11:56.845Z,101850.34
2023-02-06T04:14:23.676Z,101851.66
2023-02-06T04:16:50.471Z,101851.75
2023-02-06T04:19:17.365Z,101839.34
2023-02-06T04:21:44.108Z,101845.69
2023-02-06T04:24:11.180Z,101863.78
2023-02-06T04:26:37.877Z,101856.28
2023-02-06T04:29:04.595Z,101858.00
2023-02-06T04:31:31.377Z,101861.13
2023-02-06T04:33:59.131Z,101857.16
2023-02-06T04:36:25.862Z,101870.81
2023-02-06T04:38:55.576Z,101874.41
2023-02-06T04:41:22.749Z,101871.56
2023-02-06T04:43:49.568Z,101872.16
2023-02-06T04:46:16.289Z,101870.44
2023-02-06T04:51:08.456Z,101860.78
2023-02-06T04:53:35.880Z,101855.25
2023-02-06T04:56:08.474Z,101852.59
2023-02-06T04:58:36.268Z,101851.56
2023-02-06T05:01:06.726Z,101864.50
2023-02-06T05:03:33.728Z,101866.88
2023-02-06T05:06:02.255Z,101859.03
2023-02-06T05:08:29.845Z,101858.06
2023-02-06T05:10:57.201Z,101868.59
2023-02-06T05:13:24.274Z,101858.94
2023-02-06T05:15:51.071Z,101854.66
2023-02-06T05:18:18.038Z,101857.03
2023-02-06T05:20:44.991Z,101855.50
2023-02-06T05:23:14.449Z,101855.63
2023-02-06T05:25:42.332Z,101850.88
2023-02-06T05:28:08.611Z,101852.41
2023-02-06T05:30:35.895Z,101853.34
2023-02-06T05:33:02.655Z,101844.25
2023-02-06T05:35:29.886Z,101840.66
2023-02-06T05:37:57.689Z,101840.25
2023-02-06T05:40:24.615Z,101842.00
2023-02-06T05:42:51.433Z,101847.34
2023-02-06T05:45:19.401Z,101850.06
2023-02-06T05:47:46.122Z,101851.25
2023-02-06T05:50:12.875Z,101856.91
2023-02-06T05:52:39.760Z,101851.00
2023-02-06T05:55:07.088Z,101858.41
2023-02-06T05:57:33.989Z,101862.56
2023-02-06T06:00:00.785Z,101863.63
2023-02-06T06:02:27.577Z,101857.56
2023-02-06T06:04:54.346Z,101847.81
2023-02-06T06:07:21.177Z,101838.78
2023-02-06T06:09:48.101Z,101844.31
2023-02-06T06:12:15.629Z,101847.41
2023-02-06T06:17:12.135Z,101844.88
2023-02-06T06:19:38.791Z,101841.94
2023-02-06T06:22:09.073Z,101837.75
2023-02-06T06:24:35.772Z,101834.06
2023-02-06T06:27:03.913Z,101832.25
2023-02-06T06:29:30.793Z,101841.66
2023-02-06T06:31:57.528Z,101852.16
2023-02-06T06:34:27.724Z,101852.16
2023-02-06T06:36:54.456Z,101862.56
2023-02-06T06:39:24.423Z,101871.59
2023-02-06T06:41:51.114Z,101865.03
2023-02-06T06:44:18.300Z,101858.09
2023-02-06T06:46:45.075Z,101864.91
2023-02-06T06:49:11.819Z,101863.13
2023-02-06T06:51:38.573Z,101858.78
2023-02-06T06:54:05.309Z,101858.97
2023-02-06T06:56:32.196Z,101852.72
2023-02-06T06:58:58.877Z,101850.06
2023-02-06T07:01:25.701Z,101850.25
2023-02-06T07:03:52.627Z,101855.38
2023-02-06T07:06:19.802Z,101854.47
2023-02-06T07:08:46.503Z,101853.34
2023-02-06T07:11:14.907Z,101852.59
2023-02-06T07:16:09.756Z,101865.28
2023-02-06T07:18:38.638Z,101861.53
2023-02-06T07:21:06.395Z,101869.03
2023-02-06T07:23:33.895Z,101868.31
2023-02-06T07:26:02.477Z,101873.13
2023-02-06T07:28:30.970Z,101867.16
2023-02-06T07:31:07.312Z,101857.75
2023-02-06T07:33:34.446Z,101853.53
2023-02-06T07:36:04.026Z,101851.44
2023-02-06T07:38:31.033Z,101848.81
2023-02-06T07:41:01.910Z,101851.50
2023-02-06T07:43:28.971Z,101856.59
2023-02-06T07:46:00.164Z,101868.91
2023-02-06T07:48:27.451Z,101865.81
2023-02-06T07:50:54.493Z,101858.41
2023-02-06T07:53:24.493Z,101851.13
2023-02-06T07:55:51.303Z,101862.84
2023-02-06T07:58:18.409Z,101862.31
2023-02-06T08:00:45.955Z,101866.09
2023-02-06T08:03:12.984Z,101865.75
2023-02-06T08:05:39.815Z,101866.03
2023-02-06T08:08:07.371Z,101866.38
2023-02-06T08:10:34.200Z,101873.03
2023-02-06T08:13:01.297Z,101870.53
2023-02-06T08:15:28.011Z,101869.31
2023-02-06T08:17:57.922Z,101866.84
2023-02-06T08:20:24.717Z,101865.53
2023-02-06T08:22:51.663Z,101854.06
2023-02-06T08:25:18.466Z,101859.25
2023-02-06T08:27:45.512Z,101864.75
2023-02-06T08:30:12.900Z,101855.41
2023-02-06T08:32:39.739Z,101852.91
2023-02-06T08:35:06.810Z,101850.38
2023-02-06T08:37:33.559Z,101855.84
2023-02-06T08:40:00.583Z,101854.16
2023-02-06T08:42:27.323Z,101850.53
2023-02-06T08:44:54.268Z,101848.66
2023-02-06T08:47:21.002Z,101836.91
2023-02-06T08:49:50.953Z,101834.81
2023-02-06T08:52:18.107Z,101831.03
2023-02-06T08:54:44.806Z,101838.41
2023-02-06T08:57:13.062Z,101836.84
2023-02-06T08:59:39.861Z,101829.03
2023-02-06T09:02:08.552Z,101824.44
2023-02-06T09:04:37.855Z,101821.50
2023-02-06T09:07:04.693Z,101822.75
2023-02-06T09:09:31.418Z,101812.41
2023-02-06T09:12:04.261Z,101811.16
2023-02-06T09:14:32.363Z,101822.63
2023-02-06T09:16:59.142Z,101808.31
2023-02-06T09:19:26.935Z,101805.13
2023-02-06T09:21:54.871Z,101801.03
2023-02-06T09:24:24.680Z,101797.22
2023-02-06T09:26:59.806Z,101801.38
2023-02-06T09:29:32.270Z,101806.09
2023-02-06T09:31:59.496Z,101804.50
2023-02-06T09:34:27.523Z,101801.94
2023-02-06T09:36:54.832Z,101791.97
2023-02-06T09:39:22.172Z,101790.09
2023-02-06T09:42:04.116Z,101785.31
2023-02-06T09:44:43.517Z,101797.97
2023-02-06T09:47:31.422Z,101802.22
2023-02-06T09:50:02.961Z,101797.97
2023-02-06T09:52:44.365Z,101796.63
2023-02-06T09:55:44.298Z,101793.97
2023-02-06T10:01:21.835Z,101778.75
2023-02-06T10:04:15.342Z,101781.78
2023-02-06T10:06:44.349Z,101787.31
2023-02-06T10:09:36.682Z,101784.13
2023-02-06T10:12:17.504Z,101778.94
2023-02-06T10:15:07.632Z,101776.84
2023-02-06T10:17:44.321Z,101773.25
2023-02-06T10:20:15.819Z,101770.09
2023-02-06T10:22:44.345Z,101769.72
2023-02-06T10:25:44.246Z,101769.19
2023-02-06T10:28:31.318Z,101764.94
2023-02-06T10:31:10.090Z,101764.03
2023-02-06T10:33:44.296Z,101755.56
2023-02-06T10:36:23.043Z,101759.28
2023-02-06T10:39:18.511Z,101753.19
2023-02-06T10:41:56.849Z,101762.31
2023-02-06T10:44:33.106Z,101757.47
2023-02-06T10:47:00.551Z,101758.31
2023-02-06T10:49:43.340Z,101756.63
2023-02-06T10:52:25.355Z,101748.09
2023-02-06T10:54:55.743Z,101755.34
2023-02-06T10:57:28.741Z,101736.69
2023-02-06T11:00:00.302Z,101741.94
2023-02-06T11:02:39.297Z,101726.59
2023-02-06T11:05:19.705Z,101720.47
2023-02-06T11:07:53.132Z,101713.41
2023-02-06T11:10:22.879Z,101700.03
2023-02-06T11:13:33.941Z,101705.34
2023-02-06T11:16:04.964Z,101715.63
2023-02-06T11:21:11.958Z,101716.13
2023-02-06T11:23:39.569Z,101715.41
2023-02-06T11:26:17.341Z,101715.28
2023-02-06T11:28:58.434Z,101711.81
2023-02-06T11:31:41.213Z,101710.06
2023-02-06T11:34:21.979Z,101714.13
2023-02-06T11:36:52.884Z,101712.03
2023-02-06T11:39:27.726Z,101700.78
2023-02-06T11:42:06.482Z,101692.53
2023-02-06T11:44:45.471Z,101682.41
2023-02-06T11:47:21.488Z,101674.41
2023-02-06T11:49:48.481Z,101671.09
2023-02-06T11:52:30.503Z,101663.09
2023-02-06T11:55:02.329Z,101656.44
2023-02-06T11:57:34.245Z,101643.91
2023-02-06T12:00:19.621Z,101640.94
2023-02-06T12:02:54.234Z,101646.97
2023-02-06T12:05:25.496Z,101642.38
2023-02-06T12:08:00.522Z,101638.81
2023-02-06T12:10:32.165Z,101651.22
2023-02-06T12:13:20.289Z,101649.53
2023-02-06T12:15:50.688Z,101642.97
2023-02-06T12:18:36.496Z,101626.28
2023-02-06T12:21:17.165Z,101630.28
2023-02-06T12:23:54.109Z,101623.00
2023-02-06T12:26:24.365Z,101615.75
2023-02-06T12:29:08.302Z,101625.97
2023-02-06T12:31:41.778Z,101622.75
2023-02-06T12:34:14.173Z,101614.00
2023-02-06T12:36:43.425Z,101609.06
2023-02-06T12:39:19.812Z,101592.50
2023-02-06T12:42:12.471Z,101588.69
2023-02-06T12:44:44.454Z,101599.66
2023-02-06T12:47:22.842Z,101606.25
2023-02-06T12:49:54.255Z,101593.81
2023-02-06T12:52:31.434Z,101594.88
2023-02-06T12:55:08.341Z,101597.47
2023-02-06T12:57:37.306Z,101593.78
2023-02-06T13:00:38.676Z,101607.66
2023-02-06T13:03:28.747Z,101601.84
2023-02-06T13:06:22.732Z,101607.56
2023-02-06T13:09:09.631Z,101611.94
2023-02-06T13:11:39.273Z,101612.78
2023-02-06T13:14:17.838Z,101610.63
2023-02-06T13:16:52.961Z,101616.44
2023-02-06T13:19:44.768Z,101613.69
2023-02-06T13:22:11.447Z,101612.22
2023-02-06T13:24:44.655Z,101613.31
2023-02-06T13:27:16.978Z,101608.47
2023-02-06T13:29:43.513Z,101616.34
2023-02-06T13:32:15.836Z,101624.22
2023-02-06T13:34:44.603Z,101616.72
2023-02-06T13:37:35.499Z,101623.75
2023-02-06T13:40:26.853Z,101621.78
2023-02-06T13:43:13.945Z,101628.81
2023-02-06T13:48:46.589Z,101621.56
2023-02-06T13:51:39.550Z,101629.69
2023-02-06T13:54:41.401Z,101618.91
2023-02-06T13:57:17.282Z,101618.63
2023-02-06T14:00:19.373Z,101626.41
2023-02-06T14:02:57.395Z,101620.34
2023-02-06T14:05:44.680Z,101625.19
2023-02-06T14:08:18.588Z,101629.53
2023-02-06T14:11:04.024Z,101637.06
2023-02-06T14:13:44.476Z,101633.94
2023-02-06T14:16:44.384Z,101629.41
2023-02-06T14:19:24.546Z,101646.06
2023-02-06T14:22:05.546Z,101630.03
2023-02-06T14:24:44.508Z,101620.31
2023-02-06T14:27:27.575Z,101624.69
2023-02-06T14:30:36.283Z,101628.91
2023-02-06T14:33:11.498Z,101629.81
2023-02-06T14:35:44.380Z,101624.94
2023-02-06T14:38:26.066Z,101626.63
2023-02-06T14:40:55.423Z,101626.63
2023-02-06T14:43:28.736Z,101624.81
2023-02-06T14:46:06.907Z,101626.16
2023-02-06T14:48:44.550Z,101619.22
2023-02-06T14:51:26.605Z,101620.81
2023-02-06T14:53:57.718Z,101614.72
2023-02-06T14:56:36.852Z,101610.88
2023-02-06T14:59:12.832Z,101606.53
2023-02-06T15:01:40.607Z,101610.75
2023-02-06T15:04:15.210Z,101620.28
2023-02-06T15:06:44.424Z,101611.34
2023-02-06T15:09:29.404Z,101617.63
2023-02-06T15:11:59.789Z,101616.03
2023-02-06T15:14:32.047Z,101614.00
2023-02-06T15:17:03.029Z,101616.16
2023-02-06T15:19:32.929Z,101616.13
2023-02-06T15:22:02.666Z,101619.53
2023-02-06T15:24:35.039Z,101616.50
2023-02-06T15:27:35.592Z,101608.84
2023-02-06T15:30:20.894Z,101615.03
2023-02-06T15:32:52.769Z,101612.94
2023-02-06T15:35:33.258Z,101624.03
2023-02-06T15:38:10.490Z,101624.03
2023-02-06T15:43:20.147Z,101626.41
2023-02-06T15:45:50.286Z,101617.72
2023-02-06T15:48:40.602Z,101622.78
2023-02-06T15:51:08.755Z,101633.22
2023-02-06T15:53:38.871Z,101628.38
2023-02-06T15:56:09.806Z,101623.50
2023-02-06T15:58:38.149Z,101625.66
2023-02-06T16:01:13.321Z,101622.25
2023-02-06T16:03:41.641Z,101621.84
2023-02-06T16:06:16.421Z,101626.84
2023-02-06T16:08:45.627Z,101631.66
2023-02-06T16:11:30.957Z,101627.50
2023-02-06T16:13:58.076Z,101629.16
2023-02-06T16:16:27.054Z,101633.41
2023-02-06T16:18:57.493Z,101637.16
2023-02-06T16:21:27.170Z,101632.03
2023-02-06T16:24:07.073Z,101641.00
2023-02-06T16:26:44.447Z,101635.38
2023-02-06T16:29:11.612Z,101635.47
2023-02-06T16:34:30.843Z,101644.31
2023-02-06T16:36:57.873Z,101635.63
2023-02-06T16:39:28.245Z,101645.44
2023-02-06T16:41:55.107Z,101635.66
2023-02-06T16:44:21.886Z,101635.88
2023-02-06T16:46:48.708Z,101640.38
2023-02-06T16:49:22.819Z,101647.81
2023-02-06T16:51:52.938Z,101635.25
2023-02-06T16:54:32.135Z,101661.00
2023-02-06T16:57:09.702Z,101671.88
2023-02-06T16:59:37.989Z,101666.13
2023-02-06T17:02:16.672Z,101672.28
2023-02-06T17:04:44.502Z,101678.22
2023-02-06T17:07:26.523Z,101675.47
2023-02-06T17:09:55.439Z,101686.41
2023-02-06T17:12:23.591Z,101690.75
2023-02-06T17:14:50.410Z,101692.66
2023-02-06T17:17:20.879Z,101691.28
2023-02-06T17:19:49.877Z,101691.91
2023-02-06T17:22:16.987Z,101673.63
2023-02-06T17:24:44.735Z,101695.38
2023-02-06T17:27:20.400Z,101687.13
2023-02-06T17:29:47.948Z,101699.94
2023-02-06T17:32:16.399Z,101692.81
2023-02-06T17:34:44.828Z,101697.94
2023-02-06T17:37:20.883Z,101687.41
2023-02-06T17:39:52.117Z,101704.50
2023-02-06T17:42:19.953Z,101694.28
2023-02-06T17:44:46.959Z,101688.00
2023-02-06T17:47:19.803Z,101691.97
2023-02-06T17:49:47.294Z,101697.69
2023-02-06T17:52:18.021Z,101690.88
2023-02-06T17:54:44.969Z,101695.56
2023-02-06T17:57:13.760Z,101697.28
2023-02-06T17:59:40.761Z,101703.25
2023-02-06T18:02:07.595Z,101694.06
2023-02-06T18:04:34.486Z,101696.13
2023-02-06T18:07:01.351Z,101695.97
2023-02-06T18:09:28.219Z,101691.97
2023-02-06T18:11:55.324Z,101699.38
2023-02-06T18:14:22.165Z,101698.72
2023-02-06T18:16:48.928Z,101695.56
2023-02-06T18:19:17.280Z,101698.53
2023-02-06T18:21:44.013Z,101710.66
2023-02-06T18:24:10.812Z,101711.31
2023-02-06T18:26:37.714Z,101724.22
2023-02-06T18:29:05.853Z,101714.25
2023-02-06T18:31:37.357Z,101722.31
2023-02-06T18:34:08.116Z,101725.75
2023-02-06T18:36:36.790Z,101724.19
2023-02-06T18:39:06.749Z,101713.84
2023-02-06T18:44:10.658Z,101711.31
2023-02-06T18:46:38.186Z,101707.91
2023-02-06T18:49:08.820Z,101706.59
2023-02-06T18:51:35.951Z,101697.47
2023-02-06T18:54:04.353Z,101701.28
2023-02-06T18:56:31.431Z,101705.63
2023-02-06T18:58:59.094Z,101708.47
2023-02-06T19:01:26.814Z,101708.56
2023-02-06T19:03:54.148Z,101705.16
2023-02-06T19:06:32.959Z,101713.66
2023-02-06T19:08:59.922Z,101724.13
2023-02-06T19:11:27.451Z,101722.59
2023-02-06T19:13:54.736Z,101726.94
2023-02-06T19:16:22.097Z,101725.56
2023-02-06T19:18:49.873Z,101720.69
2023-02-06T19:21:19.760Z,101730.31
2023-02-06T19:23:53.589Z,101726.53
2023-02-06T19:26:20.421Z,101723.88
2023-02-06T19:28:50.429Z,101722.91
2023-02-06T19:31:27.304Z,101715.91
2023-02-06T19:33:58.359Z,101721.63
2023-02-06T19:36:26.793Z,101716.94
2023-02-06T19:38:57.958Z,101724.53
2023-02-06T19:41:27.047Z,101728.47
2023-02-06T19:43:55.711Z,101730.47
2023-02-06T19:46:25.458Z,101725.81
2023-02-06T19:48:56.577Z,101728.19
2023-02-06T19:51:27.682Z,101727.44
2023-02-06T19:53:57.322Z,101726.69
2023-02-06T19:56:26.026Z,101727.03
2023-02-06T19:58:58.204Z,101724.03
2023-02-06T20:01:26.222Z,101736.19
2023-02-06T20:03:53.108Z,101734.66
2023-02-06T20:06:20.270Z,101741.75
2023-02-06T20:08:47.595Z,101740.81
2023-02-06T20:11:18.095Z,101735.03
2023-02-06T20:13:47.544Z,101736.34
2023-02-06T20:16:24.067Z,101736.53
2023-02-06T20:18:51.629Z,101740.16
2023-02-06T20:21:26.980Z,101736.75
2023-02-06T20:23:55.699Z,101737.84
2023-02-06T20:26:25.610Z,101744.97
2023-02-06T20:28:56.364Z,101746.38
2023-02-06T20:31:24.018Z,101745.53
2023-02-06T20:33:51.473Z,101733.09
2023-02-06T20:36:24.734Z,101728.38
2023-02-06T20:38:57.890Z,101725.34
2023-02-06T20:41:29.718Z,101732.00
2023-02-06T20:44:01.972Z,101732.34
2023-02-06T20:46:36.258Z,101724.22
2023-02-06T20:49:06.785Z,101727.63
2023-02-06T20:51:33.608Z,101729.81
2023-02-06T20:54:00.590Z,101741.94
2023-02-06T20:56:28.277Z,101742.41
2023-02-06T20:58:56.790Z,101726.31
2023-02-06T21:01:27.065Z,101736.75
2023-02-06T21:04:07.333Z,101735.03
2023-02-06T21:06:36.053Z,101746.78
2023-02-06T21:09:04.662Z,101736.44
2023-02-06T21:11:35.426Z,101740.16
2023-02-06T21:14:08.830Z,101739.50
2023-02-06T21:16:37.889Z,101740.16
2023-02-06T21:19:10.322Z,101749.06
2023-02-06T21:21:41.318Z,101747.31
2023-02-06T21:24:08.983Z,101744.56
2023-02-06T21:26:37.107Z,101756.25
2023-02-06T21:29:10.503Z,101747.00
2023-02-06T21:31:38.855Z,101747.63
2023-02-06T21:34:13.719Z,101749.66
2023-02-06T21:36:41.437Z,101752.22
2023-02-06T21:39:09.493Z,101758.78
2023-02-06T21:41:37.274Z,101754.44
2023-02-06T21:44:04.593Z,101756.25
2023-02-06T21:46:31.405Z,101752.72
2023-02-06T21:49:00.702Z,101759.53
2023-02-06T21:51:27.966Z,101748.50
2023-02-06T21:53:56.694Z,101751.78
2023-02-06T21:56:31.420Z,101760.69
2023-02-06T21:58:58.703Z,101755.19
2023-02-06T22:01:30.951Z,101753.88
2023-02-06T22:03:58.398Z,101755.78
2023-02-06T22:06:26.172Z,101753.25
2023-02-06T22:08:54.422Z,101759.38
2023-02-06T22:11:29.620Z,101751.97
2023-02-06T22:14:01.971Z,101759.19
2023-02-06T22:16:29.832Z,101766.00
2023-02-06T22:19:06.266Z,101759.56
2023-02-06T22:21:34.530Z,101759.38
2023-02-06T22:24:07.316Z,101745.34
2023-02-06T22:26:38.896Z,101760.97
2023-02-06T22:29:07.866Z,101759.38
2023-02-06T22:31:35.522Z,101759.94
2023-02-06T22:34:03.268Z,101769.78
2023-02-06T22:36:32.263Z,101770.25
2023-02-06T22:39:04.128Z,101760.69
2023-02-06T22:41:31.309Z,101766.75
2023-02-06T22:43:58.570Z,101776.63
2023-02-06T22:46:28.062Z,101780.22
2023-02-06T22:48:56.084Z,101783.06
2023-02-06T22:51:23.464Z,101786.09
2023-02-06T22:53:50.808Z,101787.44
2023-02-06T22:56:31.889Z,101789.44
2023-02-06T22:59:00.377Z,101799.19
2023-02-06T23:01:39.352Z,101806.41
2023-02-06T23:04:08.528Z,101811.06
2023-02-06T23:06:36.396Z,101808.31
2023-02-06T23:09:05.831Z,101811.53
2023-02-06T23:11:33.665Z,101827.34
2023-02-06T23:14:06.267Z,101836.97
2023-02-06T23:16:34.953Z,101828.47
2023-02-06T23:19:04.894Z,101829.09
2023-02-06T23:21:34.639Z,101838.22
2023-02-06T23:24:01.739Z,101844.69
2023-02-06T23:26:30.213Z,101845.94
2023-02-06T23:28:59.362Z,101843.63
2023-02-06T23:31:30.040Z,101853.03
2023-02-06T23:33:57.148Z,101854.41
2023-02-06T23:36:26.489Z,101856.28
2023-02-06T23:38:56.495Z,101839.19
2023-02-06T23:41:26.204Z,101842.78
2023-02-06T23:44:02.064Z,101842.31
2023-02-06T23:46:31.348Z,101835.56
2023-02-06T23:48:58.925Z,101844.53
2023-02-06T23:51:26.433Z,101850.13
2023-02-06T23:53:53.230Z,101847.78
2023-02-06T23:56:23.551Z,101853.69
2023-02-06T23:58:51.339Z,101851.03
